createdAt,value
2018-11-05T00:00:40.533Z,11.80
2018-11-05T00:03:09.231Z,11.80
2018-11-05T00:05:37.924Z,11.70
2018-11-05T00:08:06.646Z,11.70
2018-11-05T00:10:35.327Z,11.70
2018-11-05T00:13:04.048Z,11.70
2018-11-05T00:15:32.828Z,11.70
2018-11-05T00:18:01.465Z,11.70
2018-11-05T00:20:30.370Z,11.70
2018-11-05T00:22:59.000Z,11.60
2018-11-05T00:25:28.619Z,11.60
2018-11-05T00:27:57.439Z,11.60
2018-11-05T00:30:26.244Z,11.60
2018-11-05T00:32:54.928Z,11.60
2018-11-05T00:35:23.576Z,11.70
2018-11-05T00:37:52.306Z,11.60
2018-11-05T00:40:21.059Z,11.60
2018-11-05T00:42:49.703Z,11.60
2018-11-05T00:45:18.344Z,11.60
2018-11-05T00:47:47.032Z,11.60
2018-11-05T00:50:16.522Z,11.60
2018-11-05T00:52:45.165Z,11.60
2018-11-05T00:55:14.207Z,11.60
2018-11-05T00:57:43.085Z,11.60
2018-11-05T01:00:14.611Z,11.60
2018-11-05T01:02:43.459Z,11.70
2018-11-05T01:05:13.536Z,11.70
2018-11-05T01:07:43.205Z,11.70
2018-11-05T01:10:13.070Z,11.60
2018-11-05T01:12:41.835Z,11.60
2018-11-05T01:15:14.324Z,11.60
2018-11-05T01:17:43.212Z,11.70
2018-11-05T01:20:13.156Z,11.60
2018-11-05T01:22:41.934Z,11.60
2018-11-05T01:25:10.901Z,11.70
2018-11-05T01:27:39.595Z,11.70
2018-11-05T01:30:11.952Z,11.70
2018-11-05T01:32:40.957Z,11.70
2018-11-05T01:35:11.471Z,11.70
2018-11-05T01:37:40.127Z,11.70
2018-11-05T01:40:11.245Z,11.70
2018-11-05T01:42:39.888Z,11.60
2018-11-05T01:45:10.458Z,11.60
2018-11-05T01:47:39.400Z,11.60
2018-11-05T01:50:09.751Z,11.60
2018-11-05T01:52:38.415Z,11.60
2018-11-05T01:55:07.837Z,11.60
2018-11-05T01:57:36.535Z,11.60
2018-11-05T02:00:07.992Z,11.60
2018-11-05T02:02:36.748Z,11.60
2018-11-05T02:05:05.789Z,11.60
2018-11-05T02:07:34.387Z,11.60
2018-11-05T02:10:03.240Z,11.60
2018-11-05T02:12:31.862Z,11.60
2018-11-05T02:15:00.545Z,11.70
2018-11-05T02:17:29.317Z,11.60
2018-11-05T02:19:57.925Z,11.60
2018-11-05T02:22:26.656Z,11.60
2018-11-05T02:24:55.534Z,11.60
2018-11-05T02:27:24.307Z,11.60
2018-11-05T02:29:53.008Z,11.60
2018-11-05T02:32:21.791Z,11.60
2018-11-05T02:34:50.448Z,11.60
2018-11-05T02:37:19.129Z,11.60
2018-11-05T02:39:47.975Z,11.70
2018-11-05T02:42:16.732Z,11.60
2018-11-05T02:44:45.405Z,11.60
2018-11-05T02:47:14.204Z,11.60
2018-11-05T02:49:42.863Z,11.60
2018-11-05T02:52:11.537Z,11.60
2018-11-05T02:54:40.132Z,11.60
2018-11-05T02:57:09.024Z,11.60
2018-11-05T02:59:37.744Z,11.50
2018-11-05T03:02:06.475Z,11.50
2018-11-05T03:04:35.128Z,11.60
2018-11-05T03:07:03.885Z,11.60
2018-11-05T03:09:32.522Z,11.60
2018-11-05T03:12:01.127Z,11.60
2018-11-05T03:14:29.800Z,11.70
2018-11-05T03:16:58.530Z,11.60
2018-11-05T03:19:27.193Z,11.60
2018-11-05T03:21:55.885Z,11.60
2018-11-05T03:24:24.558Z,11.60
2018-11-05T03:26:53.288Z,11.60
2018-11-05T03:29:21.941Z,11.60
2018-11-05T03:31:50.726Z,11.50
2018-11-05T03:34:19.385Z,11.60
2018-11-05T03:36:48.020Z,11.50
2018-11-05T03:39:16.664Z,11.60
2018-11-05T03:41:45.366Z,11.60
2018-11-05T03:44:14.021Z,11.60
2018-11-05T03:46:42.671Z,11.50
2018-11-05T03:49:11.435Z,11.50
2018-11-05T03:51:40.103Z,11.50
2018-11-05T03:54:09.020Z,11.60
2018-11-05T03:56:37.802Z,11.60
2018-11-05T03:59:06.337Z,11.60
2018-11-05T04:01:34.961Z,11.50
2018-11-05T04:04:03.636Z,11.50
2018-11-05T04:06:32.288Z,11.50
2018-11-05T04:09:00.888Z,11.50
2018-11-05T04:11:29.701Z,11.50
2018-11-05T04:13:58.348Z,11.60
2018-11-05T04:16:27.078Z,11.50
2018-11-05T04:18:55.993Z,11.50
2018-11-05T04:21:28.843Z,11.50
2018-11-05T04:23:57.501Z,11.60
2018-11-05T04:26:26.185Z,11.50
2018-11-05T04:28:55.015Z,11.50
2018-11-05T04:31:23.639Z,11.50
2018-11-05T04:33:52.373Z,11.50
2018-11-05T04:36:21.022Z,11.50
2018-11-05T04:38:49.837Z,11.50
2018-11-05T04:41:18.569Z,11.60
2018-11-05T04:43:47.175Z,11.50
2018-11-05T04:46:15.775Z,11.60
2018-11-05T04:48:44.501Z,11.60
2018-11-05T04:51:13.129Z,11.60
2018-11-05T04:53:41.961Z,11.60
2018-11-05T04:56:10.612Z,11.50
2018-11-05T04:58:39.320Z,11.50
2018-11-05T05:01:08.020Z,11.50
2018-11-05T05:03:36.671Z,11.50
2018-11-05T05:06:05.728Z,11.50
2018-11-05T05:08:34.362Z,11.50
2018-11-05T05:11:03.048Z,11.50
2018-11-05T05:13:31.699Z,11.50
2018-11-05T05:16:00.462Z,11.50
2018-11-05T05:18:30.236Z,11.50
2018-11-05T05:20:58.899Z,11.60
2018-11-05T05:23:27.579Z,11.50
2018-11-05T05:25:56.407Z,11.50
2018-11-05T05:28:25.032Z,11.50
2018-11-05T05:30:53.789Z,11.50
2018-11-05T05:33:22.514Z,11.50
2018-11-05T05:35:52.250Z,11.50
2018-11-05T05:38:20.940Z,11.50
2018-11-05T05:40:50.330Z,11.50
2018-11-05T05:43:19.112Z,11.50
2018-11-05T05:45:47.802Z,11.40
2018-11-05T05:48:16.484Z,11.50
2018-11-05T05:50:45.899Z,11.50
2018-11-05T05:53:14.689Z,11.40
2018-11-05T05:55:43.831Z,11.50
2018-11-05T05:58:12.556Z,11.50
2018-11-05T06:00:41.385Z,11.50
2018-11-05T06:03:10.026Z,11.50
2018-11-05T06:05:38.762Z,11.50
2018-11-05T06:08:07.512Z,11.50
2018-11-05T06:10:36.185Z,11.50
2018-11-05T06:13:05.312Z,11.50
2018-11-05T06:15:34.152Z,11.50
2018-11-05T06:18:02.864Z,11.60
2018-11-05T06:20:31.647Z,11.60
2018-11-05T06:23:00.358Z,11.60
2018-11-05T06:25:29.285Z,11.50
2018-11-05T06:27:57.919Z,11.50
2018-11-05T06:30:26.613Z,11.50
2018-11-05T06:32:55.425Z,11.60
2018-11-05T06:35:24.107Z,11.50
2018-11-05T06:37:52.733Z,11.50
2018-11-05T06:40:21.490Z,11.60
2018-11-05T06:42:50.432Z,11.60
2018-11-05T06:45:21.544Z,11.50
2018-11-05T06:47:50.456Z,11.50
2018-11-05T06:50:21.267Z,11.60
2018-11-05T06:52:49.879Z,11.60
2018-11-05T06:55:18.599Z,11.60
2018-11-05T06:57:47.357Z,11.60
2018-11-05T07:00:20.248Z,11.60
2018-11-05T07:02:49.149Z,11.60
2018-11-05T07:05:17.851Z,11.60
2018-11-05T07:07:46.460Z,11.60
2018-11-05T07:10:15.834Z,11.70
2018-11-05T07:12:45.004Z,11.70
2018-11-05T07:15:15.062Z,11.60
2018-11-05T07:17:44.827Z,11.70
2018-11-05T07:20:15.082Z,11.70
2018-11-05T07:22:44.243Z,11.70
2018-11-05T07:25:14.092Z,11.70
2018-11-05T07:27:43.028Z,11.70
2018-11-05T07:30:17.102Z,11.70
2018-11-05T07:32:46.369Z,11.70
2018-11-05T07:35:15.563Z,11.70
2018-11-05T07:37:44.239Z,11.70
2018-11-05T07:40:14.621Z,11.70
2018-11-05T07:42:43.243Z,11.80
2018-11-05T07:45:15.582Z,11.70
2018-11-05T07:47:45.131Z,11.70
2018-11-05T07:50:15.044Z,11.70
2018-11-05T07:52:43.749Z,11.80
2018-11-05T07:55:13.780Z,11.80
2018-11-05T07:57:43.557Z,11.70
2018-11-05T08:00:19.747Z,11.80
2018-11-05T08:02:49.883Z,11.80
2018-11-05T08:05:19.763Z,11.80
2018-11-05T08:07:48.740Z,11.80
2018-11-05T08:10:17.527Z,11.80
2018-11-05T08:12:46.413Z,11.80
2018-11-05T08:15:16.955Z,11.80
2018-11-05T08:17:46.864Z,11.80
2018-11-05T08:20:15.687Z,11.80
2018-11-05T08:22:44.345Z,11.80
2018-11-05T08:25:13.936Z,11.80
2018-11-05T08:27:42.990Z,11.80
2018-11-05T08:30:17.461Z,11.80
2018-11-05T08:32:46.115Z,11.90
2018-11-05T08:35:15.141Z,11.90
2018-11-05T08:37:45.036Z,11.80
2018-11-05T08:40:19.168Z,11.80
2018-11-05T08:42:48.967Z,11.90
2018-11-05T08:45:18.985Z,11.90
2018-11-05T08:47:47.655Z,11.90
2018-11-05T08:50:17.756Z,11.90
2018-11-05T08:52:46.581Z,12.00
2018-11-05T08:55:17.932Z,11.90
2018-11-05T08:57:46.780Z,11.90
2018-11-05T09:00:21.952Z,11.90
2018-11-05T09:02:50.995Z,11.90
2018-11-05T09:05:19.806Z,11.90
2018-11-05T09:07:49.224Z,11.90
2018-11-05T09:10:18.344Z,12.00
2018-11-05T09:12:46.900Z,11.90
2018-11-05T09:15:17.159Z,11.90
2018-11-05T09:17:46.379Z,11.90
2018-11-05T09:20:16.230Z,12.00
2018-11-05T09:22:45.135Z,12.00
2018-11-05T09:25:14.730Z,12.00
2018-11-05T09:27:43.496Z,12.00
2018-11-05T09:30:15.757Z,12.00
2018-11-05T09:32:45.235Z,12.00
2018-11-05T09:35:13.919Z,12.00
2018-11-05T09:37:42.524Z,12.00
2018-11-05T09:40:14.807Z,12.00
2018-11-05T09:42:44.401Z,12.00
2018-11-05T09:45:15.870Z,12.00
2018-11-05T09:47:45.388Z,12.10
2018-11-05T09:50:14.347Z,12.00
2018-11-05T09:52:43.167Z,12.00
2018-11-05T09:55:12.703Z,12.10
2018-11-05T09:57:41.768Z,12.10
2018-11-05T10:00:15.646Z,12.10
2018-11-05T10:02:49.685Z,12.20
2018-11-05T10:05:18.615Z,12.20
2018-11-05T10:07:47.368Z,12.20
2018-11-05T10:10:16.829Z,12.10
2018-11-05T10:12:45.663Z,12.20
2018-11-05T10:15:15.459Z,12.20
2018-11-05T10:17:44.120Z,12.20
2018-11-05T10:20:18.178Z,12.30
2018-11-05T10:22:47.094Z,12.20
2018-11-05T10:25:16.404Z,12.20
2018-11-05T10:27:45.551Z,12.30
2018-11-05T10:30:16.671Z,12.30
2018-11-05T10:32:45.498Z,12.20
2018-11-05T10:35:15.187Z,12.10
2018-11-05T10:37:44.011Z,12.10
2018-11-05T10:40:15.652Z,12.00
2018-11-05T10:42:45.236Z,12.10
2018-11-05T10:45:15.251Z,12.10
2018-11-05T10:47:44.153Z,12.20
2018-11-05T10:50:13.973Z,12.10
2018-11-05T10:52:43.697Z,12.20
2018-11-05T10:55:12.383Z,12.20
2018-11-05T10:57:41.644Z,12.20
2018-11-05T11:00:18.629Z,12.20
2018-11-05T11:02:52.731Z,12.30
2018-11-05T11:05:21.959Z,12.40
2018-11-05T11:07:51.028Z,12.50
2018-11-05T11:10:19.818Z,12.50
2018-11-05T11:12:48.711Z,12.50
2018-11-05T11:15:17.528Z,12.50
2018-11-05T11:17:46.152Z,12.50
2018-11-05T11:20:15.092Z,12.50
2018-11-05T11:22:43.758Z,12.50
2018-11-05T11:25:12.542Z,12.60
2018-11-05T11:27:41.283Z,12.70
2018-11-05T11:30:12.569Z,12.80
2018-11-05T11:32:41.766Z,12.90
2018-11-05T11:35:11.269Z,12.90
2018-11-05T11:37:40.165Z,12.80
2018-11-05T11:40:14.068Z,12.80
2018-11-05T11:42:43.676Z,12.90
2018-11-05T11:45:13.247Z,12.80
2018-11-05T11:47:42.099Z,12.80
2018-11-05T11:50:12.570Z,12.70
2018-11-05T11:52:41.459Z,12.80
2018-11-05T11:55:12.308Z,12.80
2018-11-05T11:57:41.253Z,12.80
2018-11-05T12:00:13.092Z,12.70
2018-11-05T12:02:42.980Z,12.80
2018-11-05T12:05:11.859Z,12.90
2018-11-05T12:07:40.409Z,13.00
2018-11-05T12:10:11.023Z,12.80
2018-11-05T12:12:39.707Z,13.00
2018-11-05T12:15:09.359Z,13.00
2018-11-05T12:17:38.475Z,13.00
2018-11-05T12:20:09.161Z,13.00
2018-11-05T12:22:37.924Z,12.90
2018-11-05T12:25:07.314Z,12.90
2018-11-05T12:27:36.080Z,12.90
2018-11-05T12:30:05.984Z,12.90
2018-11-05T12:32:34.635Z,13.00
2018-11-05T12:35:03.278Z,13.00
2018-11-05T12:37:32.047Z,13.00
2018-11-05T12:40:01.367Z,13.00
2018-11-05T12:42:29.997Z,13.00
2018-11-05T12:44:58.655Z,13.00
2018-11-05T12:47:27.321Z,12.90
2018-11-05T12:49:55.956Z,12.90
2018-11-05T12:52:24.684Z,12.90
2018-11-05T12:54:53.560Z,12.90
2018-11-05T12:57:22.506Z,12.90
2018-11-05T12:59:51.341Z,12.90
2018-11-05T13:02:24.427Z,12.90
2018-11-05T13:04:54.648Z,12.90
2018-11-05T13:07:23.470Z,12.80
2018-11-05T13:09:52.203Z,12.60
2018-11-05T13:12:21.075Z,12.70
2018-11-05T13:14:49.648Z,12.70
2018-11-05T13:17:18.356Z,12.70
2018-11-05T13:19:47.095Z,12.70
2018-11-05T13:22:15.904Z,12.80
2018-11-05T13:24:44.540Z,12.70
2018-11-05T13:27:13.236Z,12.70
2018-11-05T13:29:41.879Z,12.60
2018-11-05T13:32:10.817Z,12.70
2018-11-05T13:34:39.454Z,12.70
2018-11-05T13:37:08.340Z,12.70
2018-11-05T13:39:36.955Z,12.70
2018-11-05T13:42:05.994Z,12.80
2018-11-05T13:44:34.658Z,12.80
2018-11-05T13:47:04.023Z,12.80
2018-11-05T13:49:32.314Z,12.80
2018-11-05T13:52:01.110Z,12.70
2018-11-05T13:54:29.734Z,12.70
2018-11-05T13:56:58.474Z,12.70
2018-11-05T13:59:27.131Z,12.70
2018-11-05T14:01:56.048Z,12.80
2018-11-05T14:04:24.832Z,12.80
2018-11-05T14:06:53.620Z,12.80
2018-11-05T14:09:22.270Z,12.80
2018-11-05T14:11:51.110Z,12.80
2018-11-05T14:14:19.883Z,12.80
2018-11-05T14:16:48.663Z,12.70
2018-11-05T14:19:17.316Z,12.70
2018-11-05T14:21:45.938Z,12.70
2018-11-05T14:24:14.719Z,12.70
2018-11-05T14:26:43.427Z,12.60
2018-11-05T14:29:12.516Z,12.60
2018-11-05T14:31:40.765Z,12.50
2018-11-05T14:34:09.448Z,12.40
2018-11-05T14:36:38.483Z,12.30
2018-11-05T14:39:11.772Z,12.20
2018-11-05T14:41:40.545Z,12.10
2018-11-05T14:44:09.531Z,12.10
2018-11-05T14:46:38.175Z,11.90
2018-11-05T14:49:09.356Z,11.80
2018-11-05T14:51:38.236Z,11.80
2018-11-05T14:54:06.996Z,11.60
2018-11-05T14:56:36.028Z,11.50
2018-11-05T14:59:05.111Z,11.40
2018-11-05T15:01:34.118Z,11.30
2018-11-05T15:04:02.949Z,11.10
2018-11-05T15:06:31.660Z,11.00
2018-11-05T15:09:00.491Z,11.00
2018-11-05T15:11:29.467Z,10.90
2018-11-05T15:13:58.232Z,10.80
2018-11-05T15:16:27.187Z,10.80
2018-11-05T15:18:56.142Z,10.70
2018-11-05T15:21:24.767Z,10.70
2018-11-05T15:23:53.276Z,10.60
2018-11-05T15:26:22.208Z,10.60
2018-11-05T15:28:51.022Z,10.60
2018-11-05T15:31:19.656Z,10.50
2018-11-05T15:33:48.639Z,10.40
2018-11-05T15:36:17.233Z,10.30
2018-11-05T15:38:57.342Z,10.30
2018-11-05T15:41:25.970Z,10.20
2018-11-05T15:43:54.773Z,10.20
2018-11-05T15:46:23.568Z,10.10
2018-11-05T15:48:52.544Z,10.10
2018-11-05T15:51:21.637Z,10.10
2018-11-05T15:53:50.150Z,10.10
2018-11-05T15:56:19.021Z,10.00
2018-11-05T15:58:47.701Z,10.00
2018-11-05T16:01:16.459Z,9.90
2018-11-05T16:03:45.471Z,9.90
2018-11-05T16:06:14.256Z,9.80
2018-11-05T16:08:42.913Z,9.80
2018-11-05T16:11:11.747Z,9.80
2018-11-05T16:13:40.469Z,9.70
2018-11-05T16:16:09.168Z,9.70
2018-11-05T16:18:37.983Z,9.60
2018-11-05T16:21:06.659Z,9.60
2018-11-05T16:23:35.340Z,9.60
2018-11-05T16:26:04.415Z,9.50
2018-11-05T16:28:32.991Z,9.50
2018-11-05T16:31:01.725Z,9.50
2018-11-05T16:33:30.612Z,9.40
2018-11-05T16:35:59.293Z,9.40
2018-11-05T16:38:28.038Z,9.30
2018-11-05T16:40:56.882Z,9.30
2018-11-05T16:43:25.520Z,9.30
2018-11-05T16:45:54.109Z,9.30
2018-11-05T16:48:22.998Z,9.20
2018-11-05T16:51:15.376Z,9.20
2018-11-05T16:53:44.499Z,9.20
2018-11-05T16:56:13.103Z,9.20
2018-11-05T16:58:41.766Z,9.20
2018-11-05T17:01:10.799Z,9.10
2018-11-05T17:03:39.264Z,9.10
2018-11-05T17:06:07.925Z,9.00
2018-11-05T17:08:36.683Z,8.90
2018-11-05T17:11:05.803Z,8.90
2018-11-05T17:13:34.709Z,8.80
2018-11-05T17:16:03.225Z,8.80
2018-11-05T17:18:32.336Z,8.80
2018-11-05T17:21:00.991Z,8.80
2018-11-05T17:23:29.688Z,8.80
2018-11-05T17:25:58.490Z,8.70
2018-11-05T17:28:28.086Z,8.50
2018-11-05T17:30:56.893Z,8.50
2018-11-05T17:33:26.608Z,8.50
2018-11-05T17:35:55.336Z,8.50
2018-11-05T17:38:24.175Z,8.50
2018-11-05T17:40:52.839Z,8.50
2018-11-05T17:43:21.651Z,8.50
2018-11-05T17:45:50.298Z,8.50
2018-11-05T17:48:18.897Z,8.50
2018-11-05T17:50:47.701Z,8.50
2018-11-05T17:53:16.419Z,8.40
2018-11-05T17:55:45.176Z,8.40
2018-11-05T17:58:13.829Z,8.30
2018-11-05T18:00:42.519Z,8.20
2018-11-05T18:03:11.334Z,8.20
2018-11-05T18:05:40.057Z,8.20
2018-11-05T18:08:08.761Z,8.20
2018-11-05T18:10:37.461Z,8.20
2018-11-05T18:20:07.695Z,8.10
2018-11-05T18:22:36.645Z,8.10
2018-11-05T18:25:06.476Z,7.90
2018-11-05T18:27:35.340Z,7.90
2018-11-05T18:30:04.250Z,8.00
2018-11-05T18:32:32.880Z,8.00
2018-11-05T18:35:01.691Z,7.80
2018-11-05T18:37:30.500Z,7.70
2018-11-05T18:39:59.275Z,7.70
2018-11-05T18:42:28.404Z,7.60
2018-11-05T18:44:57.486Z,7.60
2018-11-05T18:47:26.191Z,7.60
2018-11-05T18:49:55.217Z,7.60
2018-11-05T18:52:24.104Z,7.60
2018-11-05T18:54:52.704Z,7.60
2018-11-05T18:57:21.607Z,7.60
2018-11-05T18:59:50.290Z,7.70
2018-11-05T19:02:24.480Z,7.60
2018-11-05T19:04:53.075Z,7.70
2018-11-05T19:07:21.793Z,7.70
2018-11-05T19:09:51.383Z,7.70
2018-11-05T19:12:20.040Z,7.70
2018-11-05T19:14:48.972Z,7.70
2018-11-05T19:17:17.855Z,7.60
2018-11-05T19:19:47.572Z,7.60
2018-11-05T19:22:16.419Z,7.60
2018-11-05T19:24:45.236Z,7.50
2018-11-05T19:27:14.020Z,7.50
2018-11-05T19:29:43.029Z,7.50
2018-11-05T19:32:11.710Z,7.40
2018-11-05T19:34:40.350Z,7.40
2018-11-05T19:37:09.479Z,7.40
2018-11-05T19:39:38.139Z,7.50
2018-11-05T19:42:07.007Z,7.40
2018-11-05T19:44:36.267Z,7.50
2018-11-05T19:47:05.147Z,7.50
2018-11-05T19:49:33.949Z,7.50
2018-11-05T19:52:02.600Z,7.60
2018-11-05T19:54:31.421Z,7.50
2018-11-05T19:57:00.613Z,7.50
2018-11-05T19:59:29.235Z,7.50
2018-11-05T20:01:58.176Z,7.40
2018-11-05T20:04:26.906Z,7.40
2018-11-05T20:06:55.661Z,7.30
2018-11-05T20:09:24.307Z,7.20
2018-11-05T20:11:53.004Z,7.20
2018-11-05T20:14:21.805Z,7.20
2018-11-05T20:16:50.499Z,7.20
2018-11-05T20:19:19.267Z,7.20
2018-11-05T20:21:47.962Z,7.20
2018-11-05T20:24:16.631Z,7.10
2018-11-05T20:26:45.409Z,7.10
2018-11-05T20:29:14.132Z,7.10
2018-11-05T20:31:43.226Z,7.20
2018-11-05T20:34:11.898Z,7.20
2018-11-05T20:36:40.392Z,7.20
2018-11-05T20:39:10.512Z,7.20
2018-11-05T20:41:39.296Z,7.20
2018-11-05T20:44:08.001Z,7.20
2018-11-05T20:46:38.607Z,7.20
2018-11-05T20:49:07.592Z,7.20
2018-11-05T20:51:36.271Z,7.20
2018-11-05T20:54:05.304Z,7.20
2018-11-05T20:56:33.958Z,7.20
2018-11-05T20:59:02.655Z,7.20
2018-11-05T21:01:31.489Z,7.20
2018-11-05T21:04:00.402Z,7.20
2018-11-05T21:06:29.237Z,7.10
2018-11-05T21:08:57.855Z,7.10
2018-11-05T21:11:26.591Z,7.10
2018-11-05T21:13:55.469Z,7.10
2018-11-05T21:16:24.257Z,7.10
2018-11-05T21:18:53.260Z,7.10
2018-11-05T21:21:21.972Z,7.10
2018-11-05T21:23:50.733Z,7.10
2018-11-05T21:26:19.369Z,7.00
2018-11-05T21:28:48.300Z,7.00
2018-11-05T21:31:16.957Z,7.10
2018-11-05T21:33:45.867Z,7.00
2018-11-05T21:36:14.669Z,7.00
2018-11-05T21:38:43.317Z,7.00
2018-11-05T21:41:12.312Z,7.10
2018-11-05T21:43:41.238Z,7.10
2018-11-05T21:46:10.636Z,7.10
2018-11-05T21:48:39.431Z,7.10
2018-11-05T21:51:08.296Z,7.10
2018-11-05T21:53:37.300Z,7.20
2018-11-05T21:56:06.493Z,7.10
2018-11-05T21:58:35.500Z,7.10
2018-11-05T22:01:04.595Z,7.00
2018-11-05T22:03:33.380Z,7.00
2018-11-05T22:06:02.023Z,6.90
2018-11-05T22:08:30.840Z,7.00
2018-11-05T22:10:59.603Z,7.00
2018-11-05T22:13:28.468Z,6.90
2018-11-05T22:15:57.313Z,7.00
2018-11-05T22:18:26.040Z,7.00
2018-11-05T22:20:54.857Z,6.90
2018-11-05T22:23:23.679Z,6.90
2018-11-05T22:25:52.467Z,6.90
2018-11-05T22:28:21.169Z,6.90
2018-11-05T22:30:50.043Z,6.90
2018-11-05T22:33:18.813Z,6.90
2018-11-05T22:35:47.459Z,6.90
2018-11-05T22:38:16.146Z,6.90
2018-11-05T22:40:44.919Z,6.90
2018-11-05T22:43:13.570Z,6.90
2018-11-05T22:45:42.264Z,6.90
2018-11-05T22:48:10.936Z,6.80
2018-11-05T22:50:39.640Z,6.80
2018-11-05T22:53:08.495Z,6.80
2018-11-05T22:55:37.183Z,6.70
2018-11-05T22:58:06.636Z,6.60
2018-11-05T23:00:40.796Z,6.60
2018-11-05T23:03:14.913Z,6.60
2018-11-05T23:05:43.592Z,6.60
2018-11-05T23:08:12.380Z,6.60
2018-11-05T23:10:41.170Z,6.60
2018-11-05T23:13:09.816Z,6.50
2018-11-05T23:15:38.565Z,6.60
2018-11-05T23:18:07.569Z,6.70
2018-11-05T23:20:36.217Z,6.70
2018-11-05T23:23:04.919Z,6.80
2018-11-05T23:32:38.854Z,6.80
2018-11-05T23:35:08.472Z,6.70
2018-11-05T23:37:38.072Z,6.70
2018-11-05T23:40:07.467Z,6.60
2018-11-05T23:42:36.822Z,6.60
2018-11-05T23:45:07.500Z,6.60
2018-11-05T23:47:36.204Z,6.50
2018-11-05T23:50:05.744Z,6.60
2018-11-05T23:52:34.475Z,6.50
2018-11-05T23:55:03.180Z,6.50
2018-11-05T23:57:31.956Z,6.50
